sensor_id;sensor_type;location;lat;lon;timestamp;pressure;altitude;pressure_sealevel;temperature;humidity
10716;BME280;5409;42.620;23.316;2022-07-05T00:01:11;92449.69;;;20.62;100.00
10716;BME280;5409;42.620;23.316;2022-07-05T00:03:37;92444.88;;;20.52;100.00
10716;BME280;5409;42.620;23.316;2022-07-05T00:06:04;92447.88;;;20.43;100.00
10716;BME280;5409;42.620;23.316;2022-07-05T00:08:31;92443.84;;;20.38;99.29
10716;BME280;5409;42.620;23.316;2022-07-05T00:10:58;92441.53;;;20.31;92.07
10716;BME280;5409;42.620;23.316;2022-07-05T00:13:25;92435.69;;;20.24;99.04
10716;BME280;5409;42.620;23.316;2022-07-05T00:15:51;92428.16;;;20.24;100.00
10716;BME280;5409;42.620;23.316;2022-07-05T00:18:19;92437.19;;;20.19;100.00
10716;BME280;5409;42.620;23.316;2022-07-05T00:20:46;92431.38;;;20.12;100.00
10716;BME280;5409;42.620;23.316;2022-07-05T00:23:13;92431.56;;;20.03;100.00
10716;BME280;5409;42.620;23.316;2022-07-05T00:25:40;92425.78;;;20.01;100.00
10716;BME280;5409;42.620;23.316;2022-07-05T00:28:06;92435.75;;;19.87;100.00
10716;BME280;5409;42.620;23.316;2022-07-05T00:30:33;92427.63;;;19.78;100.00
10716;BME280;5409;42.620;23.316;2022-07-05T00:33:00;92426.84;;;19.72;100.00
10716;BME280;5409;42.620;23.316;2022-07-05T00:35:28;92430.31;;;19.67;100.00
10716;BME280;5409;42.620;23.316;2022-07-05T00:37:55;92430.31;;;19.67;100.00
10716;BME280;5409;42.620;23.316;2022-07-05T00:40:21;92426.53;;;19.65;100.00
10716;BME280;5409;42.620;23.316;2022-07-05T00:42:48;92434.03;;;19.59;100.00
10716;BME280;5409;42.620;23.316;2022-07-05T00:45:15;92425.22;;;19.55;100.00
10716;BME280;5409;42.620;23.316;2022-07-05T00:47:42;92433.78;;;19.57;100.00
10716;BME280;5409;42.620;23.316;2022-07-05T00:50:09;92426.00;;;19.61;100.00
10716;BME280;5409;42.620;23.316;2022-07-05T00:52:37;92426.50;;;19.59;100.00
10716;BME280;5409;42.620;23.316;2022-07-05T00:55:04;92421.47;;;19.58;100.00
10716;BME280;5409;42.620;23.316;2022-07-05T00:57:33;92402.00;;;19.42;100.00
10716;BME280;5409;42.620;23.316;2022-07-05T01:00:00;92424.41;;;19.49;100.00
10716;BME280;5409;42.620;23.316;2022-07-05T01:02:27;92417.31;;;19.37;100.00
10716;BME280;5409;42.620;23.316;2022-07-05T01:04:53;92417.78;;;19.36;100.00
10716;BME280;5409;42.620;23.316;2022-07-05T01:07:22;92416.78;;;19.33;100.00
10716;BME280;5409;42.620;23.316;2022-07-05T01:09:52;92416.25;;;19.35;100.00
10716;BME280;5409;42.620;23.316;2022-07-05T01:12:19;92421.22;;;19.25;100.00
10716;BME280;5409;42.620;23.316;2022-07-05T01:14:46;92441.56;;;19.22;100.00
10716;BME280;5409;42.620;23.316;2022-07-05T01:17:12;92439.22;;;19.15;100.00
10716;BME280;5409;42.620;23.316;2022-07-05T01:19:39;92441.13;;;19.04;100.00
10716;BME280;5409;42.620;23.316;2022-07-05T01:22:12;92443.59;;;19.02;100.00
10716;BME280;5409;42.620;23.316;2022-07-05T01:24:43;92441.13;;;19.04;100.00
10716;BME280;5409;42.620;23.316;2022-07-05T01:27:11;92447.69;;;19.06;100.00
10716;BME280;5409;42.620;23.316;2022-07-05T01:29:38;92453.22;;;19.06;100.00
10716;BME280;5409;42.620;23.316;2022-07-05T01:32:05;92444.66;;;19.04;100.00
10716;BME280;5409;42.620;23.316;2022-07-05T01:34:32;92451.19;;;19.07;100.00
10716;BME280;5409;42.620;23.316;2022-07-05T01:36:59;92452.22;;;19.09;100.00
10716;BME280;5409;42.620;23.316;2022-07-05T01:39:26;92452.72;;;19.08;100.00
10716;BME280;5409;42.620;23.316;2022-07-05T01:41:54;92450.56;;;18.92;100.00
10716;BME280;5409;42.620;23.316;2022-07-05T01:44:20;92440.09;;;18.76;100.00
10716;BME280;5409;42.620;23.316;2022-07-05T01:46:51;92441.03;;;18.67;100.00
10716;BME280;5409;42.620;23.316;2022-07-05T01:49:22;92443.44;;;18.60;100.00
10716;BME280;5409;42.620;23.316;2022-07-05T01:51:54;92435.38;;;18.56;100.00
10716;BME280;5409;42.620;23.316;2022-07-05T01:54:23;92441.88;;;18.53;100.00
10716;BME280;5409;42.620;23.316;2022-07-05T01:56:50;92431.41;;;18.63;100.00
10716;BME280;5409;42.620;23.316;2022-07-05T01:59:18;92426.59;;;18.58;100.00
10716;BME280;5409;42.620;23.316;2022-07-05T02:01:44;92412.34;;;18.39;100.00
10716;BME280;5409;42.620;23.316;2022-07-05T02:04:11;92427.47;;;18.44;100.00
10716;BME280;5409;42.620;23.316;2022-07-05T02:06:38;92418.13;;;18.41;100.00
10716;BME280;5409;42.620;23.316;2022-07-05T02:09:06;92420.19;;;18.46;100.00
10716;BME280;5409;42.620;23.316;2022-07-05T02:11:33;92421.03;;;18.52;100.00
10716;BME280;5409;42.620;23.316;2022-07-05T02:14:00;92424.47;;;18.47;100.00
10716;BME280;5409;42.620;23.316;2022-07-05T02:16:28;92428.91;;;18.39;100.00
10716;BME280;5409;42.620;23.316;2022-07-05T02:18:55;92432.84;;;18.33;100.00
10716;BME280;5409;42.620;23.316;2022-07-05T02:21:22;92426.22;;;18.25;100.00
10716;BME280;5409;42.620;23.316;2022-07-05T02:23:48;92434.09;;;18.32;100.00
10716;BME280;5409;42.620;23.316;2022-07-05T02:26:15;92429.06;;;18.31;100.00
10716;BME280;5409;42.620;23.316;2022-07-05T02:28:42;92435.41;;;18.37;100.00
10716;BME280;5409;42.620;23.316;2022-07-05T02:31:09;92436.31;;;18.28;100.00
10716;BME280;5409;42.620;23.316;2022-07-05T02:33:37;92434.31;;;18.29;100.00
10716;BME280;5409;42.620;23.316;2022-07-05T02:36:10;92450.09;;;18.28;100.00
10716;BME280;5409;42.620;23.316;2022-07-05T02:38:37;92446.47;;;18.22;100.00
10716;BME280;5409;42.620;23.316;2022-07-05T02:41:05;92451.47;;;18.18;100.00
10716;BME280;5409;42.620;23.316;2022-07-05T02:43:32;92448.44;;;18.16;100.00
10716;BME280;5409;42.620;23.316;2022-07-05T02:45:59;92455.38;;;18.12;100.00
10716;BME280;5409;42.620;23.316;2022-07-05T02:48:26;92453.69;;;18.14;100.00
10716;BME280;5409;42.620;23.316;2022-07-05T02:50:55;92460.44;;;18.13;100.00
10716;BME280;5409;42.620;23.316;2022-07-05T02:53:22;92458.66;;;18.10;100.00
10716;BME280;5409;42.620;23.316;2022-07-05T02:55:49;92466.16;;;18.10;100.00
10716;BME280;5409;42.620;23.316;2022-07-05T02:58:16;92463.38;;;18.10;100.00
10716;BME280;5409;42.620;23.316;2022-07-05T03:00:43;92459.38;;;18.11;100.00
10716;BME280;5409;42.620;23.316;2022-07-05T03:03:10;92466.81;;;18.05;100.00
10716;BME280;5409;42.620;23.316;2022-07-05T03:05:36;92465.06;;;18.02;100.00
10716;BME280;5409;42.620;23.316;2022-07-05T03:08:05;92471.25;;;17.97;100.00
10716;BME280;5409;42.620;23.316;2022-07-05T03:10:33;92456.56;;;18.05;100.00
10716;BME280;5409;42.620;23.316;2022-07-05T03:12:59;92465.31;;;18.04;100.00
10716;BME280;5409;42.620;23.316;2022-07-05T03:15:26;92447.78;;;18.07;100.00
10716;BME280;5409;42.620;23.316;2022-07-05T03:17:53;92459.09;;;18.09;100.00
10716;BME280;5409;42.620;23.316;2022-07-05T03:20:20;92466.38;;;18.06;100.00
10716;BME280;5409;42.620;23.316;2022-07-05T03:22:46;92458.09;;;18.06;100.00
10716;BME280;5409;42.620;23.316;2022-07-05T03:25:14;92454.66;;;18.11;100.00
10716;BME280;5409;42.620;23.316;2022-07-05T03:27:41;92457.19;;;18.15;100.00
10716;BME280;5409;42.620;23.316;2022-07-05T03:30:09;92465.06;;;18.22;100.00
10716;BME280;5409;42.620;23.316;2022-07-05T03:32:36;92455.91;;;18.30;100.00
10716;BME280;5409;42.620;23.316;2022-07-05T03:35:03;92458.47;;;18.34;100.00
10716;BME280;5409;42.620;23.316;2022-07-05T03:37:30;92457.06;;;18.43;100.00
10716;BME280;5409;42.620;23.316;2022-07-05T03:39:56;92456.09;;;18.46;100.00
10716;BME280;5409;42.620;23.316;2022-07-05T03:42:24;92453.59;;;18.48;100.00
10716;BME280;5409;42.620;23.316;2022-07-05T03:44:51;92449.19;;;18.56;100.00
10716;BME280;5409;42.620;23.316;2022-07-05T03:47:19;92446.03;;;18.69;100.00
10716;BME280;5409;42.620;23.316;2022-07-05T03:49:46;92446.59;;;18.73;100.00
10716;BME280;5409;42.620;23.316;2022-07-05T03:52:12;92439.31;;;18.75;100.00
10716;BME280;5409;42.620;23.316;2022-07-05T03:54:39;92451.41;;;18.78;100.00
10716;BME280;5409;42.620;23.316;2022-07-05T03:57:06;92445.41;;;18.79;100.00
10716;BME280;5409;42.620;23.316;2022-07-05T03:59:34;92438.19;;;18.87;100.00
10716;BME280;5409;42.620;23.316;2022-07-05T04:02:00;92435.94;;;18.86;100.00
10716;BME280;5409;42.620;23.316;2022-07-05T04:04:27;92436.25;;;18.93;100.00
10716;BME280;5409;42.620;23.316;2022-07-05T04:06:54;92437.09;;;19.05;100.00
10716;BME280;5409;42.620;23.316;2022-07-05T04:09:20;92445.19;;;19.08;100.00
10716;BME280;5409;42.620;23.316;2022-07-05T04:11:47;92447.44;;;19.10;100.00
10716;BME280;5409;42.620;23.316;2022-07-05T04:14:14;92441.66;;;19.08;100.00
10716;BME280;5409;42.620;23.316;2022-07-05T04:16:42;92443.16;;;19.09;100.00
10716;BME280;5409;42.620;23.316;2022-07-05T04:19:08;92443.72;;;19.13;100.00
10716;BME280;5409;42.620;23.316;2022-07-05T04:21:35;92436.00;;;19.17;100.00
10716;BME280;5409;42.620;23.316;2022-07-05T04:24:02;92437.59;;;19.29;100.00
10716;BME280;5409;42.620;23.316;2022-07-05T04:26:29;92438.91;;;19.39;100.00
10716;BME280;5409;42.620;23.316;2022-07-05T04:28:56;92434.22;;;19.50;100.00
10716;BME280;5409;42.620;23.316;2022-07-05T04:31:22;92441.88;;;19.66;100.00
10716;BME280;5409;42.620;23.316;2022-07-05T04:33:50;92440.66;;;19.72;100.00
10716;BME280;5409;42.620;23.316;2022-07-05T04:36:17;92436.16;;;19.75;100.00
10716;BME280;5409;42.620;23.316;2022-07-05T04:38:44;92442.53;;;19.92;100.00
10716;BME280;5409;42.620;23.316;2022-07-05T04:41:10;92439.56;;;19.95;100.00
10716;BME280;5409;42.620;23.316;2022-07-05T04:43:37;92451.47;;;20.07;100.00
10716;BME280;5409;42.620;23.316;2022-07-05T04:46:04;92450.50;;;20.15;100.00
10716;BME280;5409;42.620;23.316;2022-07-05T04:48:30;92454.06;;;20.21;100.00
10716;BME280;5409;42.620;23.316;2022-07-05T04:50:59;92452.81;;;20.22;100.00
10716;BME280;5409;42.620;23.316;2022-07-05T04:53:25;92455.84;;;20.30;100.00
10716;BME280;5409;42.620;23.316;2022-07-05T04:55:52;92453.16;;;20.41;100.00
10716;BME280;5409;42.620;23.316;2022-07-05T04:58:19;92458.47;;;20.50;100.00
10716;BME280;5409;42.620;23.316;2022-07-05T05:00:45;92439.81;;;20.50;100.00
10716;BME280;5409;42.620;23.316;2022-07-05T05:03:12;92457.75;;;20.66;100.00
10716;BME280;5409;42.620;23.316;2022-07-05T05:05:39;92454.25;;;20.70;100.00
10716;BME280;5409;42.620;23.316;2022-07-05T05:08:07;92455.03;;;20.76;100.00
10716;BME280;5409;42.620;23.316;2022-07-05T05:10:33;92465.34;;;20.76;100.00
10716;BME280;5409;42.620;23.316;2022-07-05T05:13:00;92456.53;;;20.72;100.00
10716;BME280;5409;42.620;23.316;2022-07-05T05:15:27;92459.34;;;20.83;100.00
10716;BME280;5409;42.620;23.316;2022-07-05T05:17:53;92458.88;;;20.90;100.00
10716;BME280;5409;42.620;23.316;2022-07-05T05:20:20;92465.19;;;20.96;100.00
10716;BME280;5409;42.620;23.316;2022-07-05T05:22:47;92469.72;;;20.99;100.00
10716;BME280;5409;42.620;23.316;2022-07-05T05:25:15;92462.19;;;21.10;100.00
10716;BME280;5409;42.620;23.316;2022-07-05T05:27:43;92465.25;;;21.23;100.00
10716;BME280;5409;42.620;23.316;2022-07-05T05:30:11;92449.88;;;21.22;100.00
10716;BME280;5409;42.620;23.316;2022-07-05T05:32:38;92450.38;;;21.32;100.00
10716;BME280;5409;42.620;23.316;2022-07-05T05:35:06;92464.50;;;21.56;100.00
10716;BME280;5409;42.620;23.316;2022-07-05T05:37:45;92467.31;;;21.61;100.00
10716;BME280;5409;42.620;23.316;2022-07-05T05:40:11;92467.03;;;21.76;100.00
10716;BME280;5409;42.620;23.316;2022-07-05T05:42:40;92462.75;;;21.91;100.00
10716;BME280;5409;42.620;23.316;2022-07-05T05:45:07;92463.00;;;21.93;100.00
10716;BME280;5409;42.620;23.316;2022-07-05T05:47:34;92472.03;;;22.10;99.50
10716;BME280;5409;42.620;23.316;2022-07-05T05:50:08;92471.53;;;22.17;95.22
10716;BME280;5409;42.620;23.316;2022-07-05T05:52:35;92467.50;;;22.12;93.82
10716;BME280;5409;42.620;23.316;2022-07-05T05:55:02;92477.84;;;22.06;94.59
10716;BME280;5409;42.620;23.316;2022-07-05T05:57:30;92470.53;;;22.14;98.21
10716;BME280;5409;42.620;23.316;2022-07-05T05:59:58;92484.66;;;22.11;95.68
10716;BME280;5409;42.620;23.316;2022-07-05T06:02:25;92474.06;;;22.09;95.65
10716;BME280;5409;42.620;23.316;2022-07-05T06:04:51;92475.28;;;22.25;96.32
10716;BME280;5409;42.620;23.316;2022-07-05T06:07:18;92479.06;;;22.38;95.03
10716;BME280;5409;42.620;23.316;2022-07-05T06:09:45;92480.03;;;22.52;92.25
10716;BME280;5409;42.620;23.316;2022-07-05T06:12:11;92471.38;;;22.66;96.23
10716;BME280;5409;42.620;23.316;2022-07-05T06:14:38;92484.25;;;22.75;94.57
10716;BME280;5409;42.620;23.316;2022-07-05T06:17:06;92480.97;;;22.76;92.70
10716;BME280;5409;42.620;23.316;2022-07-05T06:19:33;92492.31;;;22.78;91.96
10716;BME280;5409;42.620;23.316;2022-07-05T06:22:00;92489.56;;;22.73;90.18
10716;BME280;5409;42.620;23.316;2022-07-05T06:24:26;92499.88;;;22.83;94.28
10716;BME280;5409;42.620;23.316;2022-07-05T06:26:53;92500.66;;;22.78;87.03
10716;BME280;5409;42.620;23.316;2022-07-05T06:29:20;92505.16;;;22.87;85.86
10716;BME280;5409;42.620;23.316;2022-07-05T06:31:46;92510.16;;;22.99;84.19
10716;BME280;5409;42.620;23.316;2022-07-05T06:34:14;92500.81;;;23.08;83.60
10716;BME280;5409;42.620;23.316;2022-07-05T06:36:41;92502.47;;;23.27;84.80
10716;BME280;5409;42.620;23.316;2022-07-05T06:39:07;92496.03;;;23.43;85.84
10716;BME280;5409;42.620;23.316;2022-07-05T06:41:34;92499.69;;;23.27;81.43
10716;BME280;5409;42.620;23.316;2022-07-05T06:44:01;92491.84;;;23.25;83.98
10716;BME280;5409;42.620;23.316;2022-07-05T06:46:27;92498.66;;;23.30;83.53
10716;BME280;5409;42.620;23.316;2022-07-05T06:48:54;92491.13;;;23.19;82.18
10716;BME280;5409;42.620;23.316;2022-07-05T06:51:22;92490.09;;;23.22;84.38
10716;BME280;5409;42.620;23.316;2022-07-05T06:53:49;92490.22;;;23.41;83.87
10716;BME280;5409;42.620;23.316;2022-07-05T06:56:15;92485.97;;;23.34;84.90
10716;BME280;5409;42.620;23.316;2022-07-05T06:58:42;92483.69;;;23.33;87.42
10716;BME280;5409;42.620;23.316;2022-07-05T07:01:09;92475.97;;;23.55;85.87
10716;BME280;5409;42.620;23.316;2022-07-05T07:03:35;92480.19;;;23.67;84.00
10716;BME280;5409;42.620;23.316;2022-07-05T07:06:02;92480.56;;;23.88;85.15
10716;BME280;5409;42.620;23.316;2022-07-05T07:08:30;92472.25;;;23.82;84.04
10716;BME280;5409;42.620;23.316;2022-07-05T07:11:14;92481.88;;;23.81;82.07
10716;BME280;5409;42.620;23.316;2022-07-05T07:13:41;92481.03;;;23.57;82.99
10716;BME280;5409;42.620;23.316;2022-07-05T07:16:07;92485.16;;;23.80;85.89
10716;BME280;5409;42.620;23.316;2022-07-05T07:18:34;92484.59;;;23.87;84.81
10716;BME280;5409;42.620;23.316;2022-07-05T07:21:01;92492.72;;;24.14;89.60
10716;BME280;5409;42.620;23.316;2022-07-05T07:23:27;92495.22;;;24.18;80.80
10716;BME280;5409;42.620;23.316;2022-07-05T07:25:55;92494.81;;;24.32;80.94
10716;BME280;5409;42.620;23.316;2022-07-05T07:28:22;92504.13;;;24.40;79.81
10716;BME280;5409;42.620;23.316;2022-07-05T07:30:49;92495.69;;;24.51;78.76
10716;BME280;5409;42.620;23.316;2022-07-05T07:33:16;92500.00;;;24.46;79.33
10716;BME280;5409;42.620;23.316;2022-07-05T07:35:42;92501.78;;;24.49;79.66
10716;BME280;5409;42.620;23.316;2022-07-05T07:38:09;92488.19;;;24.64;82.76
10716;BME280;5409;42.620;23.316;2022-07-05T07:40:36;92485.81;;;24.92;80.91
10716;BME280;5409;42.620;23.316;2022-07-05T07:43:04;92474.81;;;25.00;84.85
10716;BME280;5409;42.620;23.316;2022-07-05T07:45:30;92483.16;;;25.24;81.30
10716;BME280;5409;42.620;23.316;2022-07-05T07:47:57;92487.97;;;25.42;79.61
10716;BME280;5409;42.620;23.316;2022-07-05T07:50:24;92494.47;;;25.31;83.56
10716;BME280;5409;42.620;23.316;2022-07-05T07:52:51;92492.34;;;25.19;84.35
10716;BME280;5409;42.620;23.316;2022-07-05T07:55:17;92490.03;;;24.99;81.81
10716;BME280;5409;42.620;23.316;2022-07-05T07:57:44;92482.94;;;25.22;79.89
10716;BME280;5409;42.620;23.316;2022-07-05T08:00:13;92491.13;;;25.51;81.68
10716;BME280;5409;42.620;23.316;2022-07-05T08:02:40;92491.50;;;25.79;81.95
10716;BME280;5409;42.620;23.316;2022-07-05T08:05:07;92496.03;;;25.82;82.49
10716;BME280;5409;42.620;23.316;2022-07-05T08:07:35;92496.03;;;25.63;83.01
10716;BME280;5409;42.620;23.316;2022-07-05T08:10:03;92493.75;;;25.62;78.36
10716;BME280;5409;42.620;23.316;2022-07-05T08:12:30;92490.88;;;25.67;85.36
10716;BME280;5409;42.620;23.316;2022-07-05T08:14:56;92486.16;;;25.81;82.83
10716;BME280;5409;42.620;23.316;2022-07-05T08:17:24;92492.59;;;26.20;79.48
10716;BME280;5409;42.620;23.316;2022-07-05T08:19:51;92494.06;;;26.08;77.17
10716;BME280;5409;42.620;23.316;2022-07-05T08:22:35;92494.91;;;26.35;76.28
10716;BME280;5409;42.620;23.316;2022-07-05T08:25:03;92498.09;;;26.83;77.84
10716;BME280;5409;42.620;23.316;2022-07-05T08:27:29;92494.75;;;26.97;69.38
10716;BME280;5409;42.620;23.316;2022-07-05T08:29:56;92494.03;;;27.10;68.68
10716;BME280;5409;42.620;23.316;2022-07-05T08:32:24;92493.53;;;27.45;72.64
10716;BME280;5409;42.620;23.316;2022-07-05T08:34:51;92493.06;;;27.67;67.77
10716;BME280;5409;42.620;23.316;2022-07-05T08:37:17;92486.59;;;27.59;64.07
10716;BME280;5409;42.620;23.316;2022-07-05T08:39:44;92478.69;;;28.03;70.79
10716;BME280;5409;42.620;23.316;2022-07-05T08:42:11;92471.72;;;27.97;63.48
10716;BME280;5409;42.620;23.316;2022-07-05T08:44:39;92476.16;;;27.92;64.60
10716;BME280;5409;42.620;23.316;2022-07-05T08:47:09;92482.84;;;27.89;72.96
10716;BME280;5409;42.620;23.316;2022-07-05T08:49:39;92483.19;;;27.86;69.22
10716;BME280;5409;42.620;23.316;2022-07-05T08:52:10;92480.13;;;27.97;67.02
10716;BME280;5409;42.620;23.316;2022-07-05T08:54:38;92439.28;;;27.88;66.21
10716;BME280;5409;42.620;23.316;2022-07-05T08:57:05;92462.56;;;28.17;66.49
10716;BME280;5409;42.620;23.316;2022-07-05T08:59:32;92466.72;;;28.44;63.76
10716;BME280;5409;42.620;23.316;2022-07-05T09:01:59;92483.06;;;28.53;61.56
10716;BME280;5409;42.620;23.316;2022-07-05T09:04:30;92468.31;;;28.52;56.58
10716;BME280;5409;42.620;23.316;2022-07-05T09:07:02;92466.16;;;28.86;60.33
10716;BME280;5409;42.620;23.316;2022-07-05T09:09:30;92459.16;;;29.08;59.08
10716;BME280;5409;42.620;23.316;2022-07-05T09:11:59;92462.00;;;29.15;55.96
10716;BME280;5409;42.620;23.316;2022-07-05T09:14:25;92456.38;;;29.15;56.35
10716;BME280;5409;42.620;23.316;2022-07-05T09:16:52;92455.72;;;29.37;56.87
10716;BME280;5409;42.620;23.316;2022-07-05T09:19:20;92450.69;;;29.00;58.84
10716;BME280;5409;42.620;23.316;2022-07-05T09:21:47;92443.28;;;29.17;59.38
10716;BME280;5409;42.620;23.316;2022-07-05T09:24:15;92443.56;;;28.99;60.50
10716;BME280;5409;42.620;23.316;2022-07-05T09:26:44;92445.88;;;29.43;62.31
10716;BME280;5409;42.620;23.316;2022-07-05T09:29:14;92448.19;;;29.60;60.04
10716;BME280;5409;42.620;23.316;2022-07-05T09:31:43;92442.63;;;29.90;53.46
10716;BME280;5409;42.620;23.316;2022-07-05T09:34:11;92439.75;;;30.55;60.96
10716;BME280;5409;42.620;23.316;2022-07-05T09:36:52;92444.53;;;31.14;51.23
10716;BME280;5409;42.620;23.316;2022-07-05T09:39:36;92442.28;;;31.05;46.24
10716;BME280;5409;42.620;23.316;2022-07-05T09:42:15;92443.41;;;31.02;48.72
10716;BME280;5409;42.620;23.316;2022-07-05T09:44:46;92433.41;;;31.31;52.13
10716;BME280;5409;42.620;23.316;2022-07-05T09:47:14;92436.47;;;30.96;50.42
10716;BME280;5409;42.620;23.316;2022-07-05T09:49:42;92430.09;;;31.10;51.28
10716;BME280;5409;42.620;23.316;2022-07-05T09:52:09;92425.97;;;31.65;54.86
10716;BME280;5409;42.620;23.316;2022-07-05T09:54:37;92422.13;;;31.31;53.72
10716;BME280;5409;42.620;23.316;2022-07-05T09:57:04;92426.16;;;31.99;48.88
10716;BME280;5409;42.620;23.316;2022-07-05T09:59:31;92430.50;;;32.49;47.10
10716;BME280;5409;42.620;23.316;2022-07-05T10:01:58;92416.56;;;32.51;46.58
10716;BME280;5409;42.620;23.316;2022-07-05T10:04:24;92408.75;;;32.18;45.67
10716;BME280;5409;42.620;23.316;2022-07-05T10:06:51;92408.09;;;32.27;47.09
10716;BME280;5409;42.620;23.316;2022-07-05T10:09:18;92423.94;;;32.47;43.73
10716;BME280;5409;42.620;23.316;2022-07-05T10:11:47;92411.25;;;32.96;47.07
10716;BME280;5409;42.620;23.316;2022-07-05T10:14:15;92403.59;;;32.48;47.46
10716;BME280;5409;42.620;23.316;2022-07-05T10:16:52;92408.91;;;32.69;52.32
10716;BME280;5409;42.620;23.316;2022-07-05T10:19:25;92407.19;;;32.90;50.01
10716;BME280;5409;42.620;23.316;2022-07-05T10:21:54;92404.97;;;33.39;46.47
10716;BME280;5409;42.620;23.316;2022-07-05T10:24:21;92397.38;;;33.59;48.73
10716;BME280;5409;42.620;23.316;2022-07-05T10:26:50;92410.19;;;34.20;44.24
10716;BME280;5409;42.620;23.316;2022-07-05T10:29:17;92400.19;;;34.55;46.46
10716;BME280;5409;42.620;23.316;2022-07-05T10:31:45;92398.81;;;34.92;51.02
10716;BME280;5409;42.620;23.316;2022-07-05T10:34:12;92396.84;;;34.85;47.66
10716;BME280;5409;42.620;23.316;2022-07-05T10:36:40;92395.75;;;34.61;47.07
10716;BME280;5409;42.620;23.316;2022-07-05T10:39:09;92392.19;;;34.25;45.48
10716;BME280;5409;42.620;23.316;2022-07-05T10:41:37;92390.19;;;34.18;42.54
10716;BME280;5409;42.620;23.316;2022-07-05T10:44:06;92383.47;;;34.49;47.40
10716;BME280;5409;42.620;23.316;2022-07-05T10:46:38;92388.31;;;34.66;40.45
10716;BME280;5409;42.620;23.316;2022-07-05T10:49:11;92380.81;;;33.72;49.01
10716;BME280;5409;42.620;23.316;2022-07-05T10:51:39;92392.81;;;32.78;49.23
10716;BME280;5409;42.620;23.316;2022-07-05T10:54:07;92385.31;;;32.32;53.71
10716;BME280;5409;42.620;23.316;2022-07-05T10:56:34;92381.53;;;31.73;53.87
10716;BME280;5409;42.620;23.316;2022-07-05T10:59:10;92372.88;;;31.79;58.32
10716;BME280;5409;42.620;23.316;2022-07-05T11:01:39;92373.41;;;32.34;53.58
10716;BME280;5409;42.620;23.316;2022-07-05T11:04:25;92374.31;;;32.61;48.89
10716;BME280;5409;42.620;23.316;2022-07-05T11:07:02;92365.50;;;33.32;51.26
10716;BME280;5409;42.620;23.316;2022-07-05T11:09:29;92374.38;;;33.89;48.58
10716;BME280;5409;42.620;23.316;2022-07-05T11:12:11;92369.25;;;34.04;43.46
10716;BME280;5409;42.620;23.316;2022-07-05T11:14:44;92367.91;;;34.05;43.35
10716;BME280;5409;42.620;23.316;2022-07-05T11:17:17;92353.72;;;34.22;45.04
10716;BME280;5409;42.620;23.316;2022-07-05T11:20:12;92359.34;;;34.12;41.69
10716;BME280;5409;42.620;23.316;2022-07-05T11:22:41;92364.38;;;34.50;42.03
10716;BME280;5409;42.620;23.316;2022-07-05T11:25:10;92366.72;;;34.80;40.20
10716;BME280;5409;42.620;23.316;2022-07-05T11:27:59;92359.69;;;34.71;37.88
10716;BME280;5409;42.620;23.316;2022-07-05T11:30:28;92356.59;;;34.86;40.07
10716;BME280;5409;42.620;23.316;2022-07-05T11:32:58;92368.41;;;35.02;36.78
10716;BME280;5409;42.620;23.316;2022-07-05T11:35:31;92372.94;;;35.42;34.59
10716;BME280;5409;42.620;23.316;2022-07-05T11:38:02;92355.91;;;35.52;33.65
10716;BME280;5409;42.620;23.316;2022-07-05T11:40:31;92358.13;;;35.72;35.48
10716;BME280;5409;42.620;23.316;2022-07-05T11:42:58;92361.06;;;35.93;37.95
10716;BME280;5409;42.620;23.316;2022-07-05T11:45:27;92352.69;;;36.14;33.67
10716;BME280;5409;42.620;23.316;2022-07-05T11:47:54;92359.81;;;36.25;33.11
10716;BME280;5409;42.620;23.316;2022-07-05T11:50:28;92353.13;;;36.11;32.33
10716;BME280;5409;42.620;23.316;2022-07-05T11:52:55;92354.47;;;36.00;33.63
10716;BME280;5409;42.620;23.316;2022-07-05T11:55:24;92351.63;;;36.19;30.74
10716;BME280;5409;42.620;23.316;2022-07-05T11:57:52;92343.66;;;36.27;31.36
10716;BME280;5409;42.620;23.316;2022-07-05T12:00:28;92340.63;;;35.95;31.84
10716;BME280;5409;42.620;23.316;2022-07-05T12:02:54;92335.50;;;36.12;32.29
10716;BME280;5409;42.620;23.316;2022-07-05T12:05:21;92329.63;;;36.20;31.06
10716;BME280;5409;42.620;23.316;2022-07-05T12:07:49;92334.34;;;36.36;30.25
10716;BME280;5409;42.620;23.316;2022-07-05T12:10:16;92330.41;;;36.50;30.60
10716;BME280;5409;42.620;23.316;2022-07-05T12:13:05;92317.19;;;36.85;28.94
10716;BME280;5409;42.620;23.316;2022-07-05T12:15:34;92326.03;;;37.10;30.37
10716;BME280;5409;42.620;23.316;2022-07-05T12:18:02;92316.69;;;36.98;30.79
10716;BME280;5409;42.620;23.316;2022-07-05T12:20:31;92328.84;;;36.89;29.92
10716;BME280;5409;42.620;23.316;2022-07-05T12:22:58;92322.22;;;36.75;30.00
10716;BME280;5409;42.620;23.316;2022-07-05T12:25:26;92327.41;;;36.79;27.62
10716;BME280;5409;42.620;23.316;2022-07-05T12:27:55;92319.63;;;36.79;29.61
10716;BME280;5409;42.620;23.316;2022-07-05T12:30:23;92313.69;;;37.17;33.20
10716;BME280;5409;42.620;23.316;2022-07-05T12:32:55;92313.47;;;37.46;32.51
10716;BME280;5409;42.620;23.316;2022-07-05T12:35:34;92324.31;;;37.59;27.40
10716;BME280;5409;42.620;23.316;2022-07-05T12:38:08;92317.69;;;37.24;29.02
10716;BME280;5409;42.620;23.316;2022-07-05T12:40:36;92286.31;;;37.33;29.61
10716;BME280;5409;42.620;23.316;2022-07-05T12:43:06;92311.28;;;37.88;30.47
10716;BME280;5409;42.620;23.316;2022-07-05T12:45:33;92320.84;;;38.04;29.51
10716;BME280;5409;42.620;23.316;2022-07-05T12:48:03;92307.13;;;38.00;29.28
10716;BME280;5409;42.620;23.316;2022-07-05T12:50:45;92304.44;;;37.81;28.00
10716;BME280;5409;42.620;23.316;2022-07-05T12:53:12;92299.84;;;37.76;28.99
10716;BME280;5409;42.620;23.316;2022-07-05T12:56:02;92299.56;;;37.93;29.45
10716;BME280;5409;42.620;23.316;2022-07-05T12:58:50;92284.94;;;38.10;28.14
10716;BME280;5409;42.620;23.316;2022-07-05T13:01:21;92289.91;;;37.98;26.32